createdAt,value
2019-02-04T00:01:17.927Z,87.70
2019-02-04T00:03:47.627Z,88.20
2019-02-04T00:06:17.012Z,87.70
2019-02-04T00:08:46.444Z,87.80
2019-02-04T00:11:15.831Z,88.30
2019-02-04T00:13:45.260Z,88.60
2019-02-04T00:16:14.656Z,88.90
2019-02-04T00:18:44.123Z,88.70
2019-02-04T00:21:13.908Z,88.90
2019-02-04T00:23:43.556Z,90.00
2019-02-04T00:26:14.151Z,89.40
2019-02-04T00:28:43.874Z,89.70
2019-02-04T00:31:13.294Z,90.10
2019-02-04T00:33:42.720Z,90.20
2019-02-04T00:36:12.400Z,90.20
2019-02-04T00:38:41.784Z,90.20
2019-02-04T00:41:11.331Z,90.20
2019-02-04T00:43:40.984Z,90.20
2019-02-04T00:46:10.392Z,90.40
2019-02-04T00:48:39.775Z,90.20
2019-02-04T00:51:09.182Z,90.30
2019-02-04T00:53:39.204Z,90.50
2019-02-04T00:56:08.689Z,90.50
2019-02-04T00:58:38.073Z,90.60
2019-02-04T01:01:08.083Z,90.50
2019-02-04T01:03:37.744Z,90.60
2019-02-04T01:06:07.232Z,90.90
2019-02-04T01:08:36.736Z,90.80
2019-02-04T01:11:06.615Z,90.90
2019-02-04T01:13:36.016Z,91.00
2019-02-04T01:16:05.760Z,91.10
2019-02-04T01:18:35.205Z,90.90
2019-02-04T01:21:04.734Z,91.10
2019-02-04T01:23:34.100Z,91.10
2019-02-04T01:26:03.517Z,90.90
2019-02-04T01:28:32.907Z,91.10
2019-02-04T01:31:02.329Z,91.40
2019-02-04T01:33:31.724Z,91.30
2019-02-04T01:36:01.291Z,91.50
2019-02-04T01:38:31.223Z,91.80
2019-02-04T01:41:00.627Z,91.80
2019-02-04T01:43:30.322Z,91.60
2019-02-04T01:45:59.992Z,91.40
2019-02-04T01:48:29.498Z,91.20
2019-02-04T01:50:58.942Z,91.50
2019-02-04T01:53:28.327Z,91.50
2019-02-04T01:55:57.734Z,91.40
2019-02-04T01:58:27.111Z,91.80
2019-02-04T02:00:56.938Z,91.80
2019-02-04T02:03:26.348Z,91.80
2019-02-04T02:05:56.089Z,91.90
2019-02-04T02:08:25.489Z,92.00
2019-02-04T02:10:55.202Z,92.40
2019-02-04T02:13:24.901Z,92.70
2019-02-04T02:15:54.287Z,92.60
2019-02-04T02:18:24.069Z,92.50
2019-02-04T02:20:53.603Z,92.40
2019-02-04T02:23:23.008Z,92.70
2019-02-04T02:25:52.786Z,92.90
2019-02-04T02:28:22.229Z,92.90
2019-02-04T02:30:51.876Z,93.00
2019-02-04T02:33:22.795Z,92.80
2019-02-04T02:35:52.184Z,93.20
2019-02-04T02:38:21.740Z,93.10
2019-02-04T02:40:51.120Z,93.50
2019-02-04T02:43:20.542Z,93.80
2019-02-04T02:45:49.916Z,94.20
2019-02-04T02:48:19.341Z,94.70
2019-02-04T02:50:49.010Z,95.10
2019-02-04T02:53:18.993Z,95.40
2019-02-04T02:55:48.386Z,95.50
2019-02-04T02:58:17.792Z,95.90
2019-02-04T03:00:47.179Z,96.10
2019-02-04T03:03:16.948Z,96.20
2019-02-04T03:05:46.342Z,96.80
2019-02-04T03:08:16.052Z,97.00
2019-02-04T03:10:45.452Z,97.40
2019-02-04T03:13:14.880Z,97.50
2019-02-04T03:15:44.325Z,97.60
2019-02-04T03:18:13.736Z,97.80
2019-02-04T03:20:43.480Z,98.00
2019-02-04T03:23:13.160Z,98.50
2019-02-04T03:25:42.563Z,98.60
2019-02-04T03:28:11.961Z,99.00
2019-02-04T03:30:41.350Z,99.00
2019-02-04T03:33:10.767Z,99.30
2019-02-04T03:35:40.450Z,99.40
2019-02-04T03:38:09.870Z,99.80
2019-02-04T03:40:39.258Z,99.90
2019-02-04T03:43:08.683Z,99.90
2019-02-04T03:45:38.087Z,99.90
2019-02-04T03:48:09.530Z,99.90
2019-02-04T03:50:38.525Z,99.90
2019-02-04T03:53:08.226Z,99.90
2019-02-04T03:55:37.903Z,99.90
2019-02-04T03:58:07.301Z,99.90
2019-02-04T04:00:37.113Z,99.90
2019-02-04T04:03:06.858Z,99.90
2019-02-04T04:05:36.244Z,99.90
2019-02-04T04:08:05.943Z,99.90
2019-02-04T04:10:35.580Z,99.90
2019-02-04T04:13:05.015Z,99.90
2019-02-04T04:15:34.743Z,99.90
2019-02-04T04:18:15.039Z,99.90
2019-02-04T04:20:35.510Z,99.90
2019-02-04T04:23:05.179Z,99.90
2019-02-04T04:25:34.857Z,99.90
2019-02-04T04:28:04.267Z,99.90
2019-02-04T04:30:33.658Z,99.90
2019-02-04T04:33:03.346Z,99.90
2019-02-04T04:35:32.741Z,99.90
2019-02-04T04:38:02.147Z,99.90
2019-02-04T04:40:31.877Z,99.90
2019-02-04T04:43:01.403Z,99.90
2019-02-04T04:45:31.093Z,99.90
2019-02-04T04:48:00.787Z,99.90
2019-02-04T04:50:30.437Z,99.90
2019-02-04T04:52:59.982Z,99.90
2019-02-04T04:55:29.667Z,99.90
2019-02-04T04:57:59.076Z,99.90
2019-02-04T05:00:30.807Z,99.90
2019-02-04T05:03:00.538Z,99.90
2019-02-04T05:05:29.919Z,99.90
2019-02-04T05:07:59.401Z,99.90
2019-02-04T05:10:28.780Z,99.90
2019-02-04T05:12:58.212Z,99.90
2019-02-04T05:15:28.258Z,99.90
2019-02-04T05:17:57.673Z,99.90
2019-02-04T05:20:27.060Z,99.90
2019-02-04T05:22:56.486Z,99.90
2019-02-04T05:25:25.874Z,99.90
2019-02-04T05:27:55.907Z,99.90
2019-02-04T05:30:25.689Z,99.90
2019-02-04T05:32:55.191Z,99.90
2019-02-04T05:35:25.023Z,99.90
2019-02-04T05:37:54.898Z,99.90
2019-02-04T05:40:24.376Z,99.90
2019-02-04T05:42:54.123Z,99.90
2019-02-04T05:45:23.608Z,99.90
2019-02-04T05:47:52.998Z,99.90
2019-02-04T05:50:22.412Z,99.90
2019-02-04T05:52:51.795Z,99.90
2019-02-04T05:55:22.922Z,99.90
2019-02-04T05:57:52.322Z,99.90
2019-02-04T06:00:28.416Z,99.90
2019-02-04T06:02:57.810Z,99.90
2019-02-04T06:05:27.212Z,99.90
2019-02-04T06:07:56.592Z,99.90
2019-02-04T06:10:26.027Z,99.90
2019-02-04T06:12:55.428Z,99.90
2019-02-04T06:15:24.851Z,99.90
2019-02-04T06:17:54.276Z,99.90
2019-02-04T06:20:24.698Z,99.90
2019-02-04T06:22:54.495Z,99.90
2019-02-04T06:25:23.915Z,99.90
2019-02-04T06:27:53.404Z,99.90
2019-02-04T06:30:22.851Z,99.90
2019-02-04T06:32:52.531Z,99.90
2019-02-04T06:35:21.939Z,99.90
2019-02-04T06:37:51.324Z,99.90
2019-02-04T06:40:21.009Z,99.90
2019-02-04T06:42:50.402Z,99.90
2019-02-04T06:45:20.268Z,99.90
2019-02-04T06:47:50.192Z,99.90
2019-02-04T06:50:20.119Z,99.90
2019-02-04T06:52:50.205Z,99.90
2019-02-04T06:55:28.056Z,99.90
2019-02-04T06:57:57.452Z,99.90
2019-02-04T07:00:27.236Z,99.90
2019-02-04T07:02:56.630Z,99.90
2019-02-04T07:05:26.040Z,99.90
2019-02-04T07:07:55.444Z,99.90
2019-02-04T07:10:26.182Z,99.90
2019-02-04T07:12:55.574Z,99.90
2019-02-04T07:15:25.332Z,99.90
2019-02-04T07:17:55.032Z,99.90
2019-02-04T07:20:25.432Z,99.90
2019-02-04T07:22:54.850Z,99.90
2019-02-04T07:25:25.114Z,99.90
2019-02-04T07:27:54.502Z,99.90
2019-02-04T07:30:25.704Z,99.90
2019-02-04T07:32:55.398Z,99.90
2019-02-04T07:35:24.833Z,99.90
2019-02-04T07:37:54.364Z,99.90
2019-02-04T07:40:28.799Z,99.90
2019-02-04T07:42:58.211Z,99.90
2019-02-04T07:45:27.692Z,99.90
2019-02-04T07:47:57.111Z,99.90
2019-02-04T07:50:26.510Z,99.90
2019-02-04T07:52:56.039Z,99.90
2019-02-04T07:55:25.728Z,99.90
2019-02-04T07:57:57.217Z,99.90
2019-02-04T08:00:28.713Z,99.90
2019-02-04T08:02:58.526Z,99.90
2019-02-04T08:05:28.185Z,99.90
2019-02-04T08:07:57.888Z,99.90
2019-02-04T08:10:27.666Z,99.90
2019-02-04T08:13:01.662Z,99.90
2019-02-04T08:15:31.504Z,99.90
2019-02-04T08:18:00.934Z,99.90
2019-02-04T08:20:30.452Z,99.90
2019-02-04T08:22:59.883Z,99.90
2019-02-04T08:25:29.381Z,99.90
2019-02-04T08:27:59.277Z,99.40
2019-02-04T08:30:31.011Z,99.40
2019-02-04T08:33:00.692Z,99.20
2019-02-04T08:35:31.323Z,99.40
2019-02-04T08:38:00.824Z,99.40
2019-02-04T08:40:31.279Z,99.40
2019-02-04T08:43:01.300Z,98.90
2019-02-04T08:45:30.686Z,98.70
2019-02-04T08:48:00.413Z,98.50
2019-02-04T08:50:30.301Z,98.50
2019-02-04T08:52:59.992Z,98.50
2019-02-04T08:55:29.405Z,98.10
2019-02-04T08:57:59.197Z,98.00
2019-02-04T09:00:28.672Z,98.00
2019-02-04T09:02:58.071Z,97.90
2019-02-04T09:05:27.716Z,97.50
2019-02-04T09:07:57.129Z,97.50
2019-02-04T09:10:31.937Z,97.00
2019-02-04T09:13:01.893Z,96.90
2019-02-04T09:15:31.487Z,96.60
2019-02-04T09:18:01.945Z,96.70
2019-02-04T09:20:31.337Z,96.70
2019-02-04T09:23:00.744Z,96.10
2019-02-04T09:25:30.496Z,95.40
2019-02-04T09:27:59.916Z,95.50
2019-02-04T09:30:29.310Z,95.70
2019-02-04T09:32:59.124Z,95.20
2019-02-04T09:35:28.925Z,95.00
2019-02-04T09:37:58.431Z,94.00
2019-02-04T09:40:33.776Z,94.00
2019-02-04T09:43:03.740Z,93.90
2019-02-04T09:45:33.820Z,93.80
2019-02-04T09:48:03.548Z,93.00
2019-02-04T09:50:33.615Z,92.30
2019-02-04T09:53:03.290Z,91.50
2019-02-04T09:55:35.179Z,91.40
2019-02-04T09:58:05.053Z,91.10
2019-02-04T10:00:35.432Z,90.70
2019-02-04T10:03:06.359Z,90.60
2019-02-04T10:05:36.646Z,90.30
2019-02-04T10:08:07.363Z,90.60
2019-02-04T10:10:37.017Z,89.90
2019-02-04T10:13:06.752Z,89.60
2019-02-04T10:15:38.516Z,89.00
2019-02-04T10:18:09.231Z,86.70
2019-02-04T10:20:39.144Z,84.50
2019-02-04T10:23:08.863Z,82.20
2019-02-04T10:25:39.921Z,82.90
2019-02-04T10:28:10.522Z,82.60
2019-02-04T10:30:41.483Z,82.60
2019-02-04T10:33:11.662Z,81.20
2019-02-04T10:35:41.598Z,80.10
2019-02-04T10:38:11.262Z,78.20
2019-02-04T10:40:40.651Z,79.50
2019-02-04T10:43:10.774Z,79.90
2019-02-04T10:45:40.251Z,79.50
2019-02-04T10:48:09.928Z,78.20
2019-02-04T10:50:46.193Z,76.10
2019-02-04T10:53:11.477Z,75.20
2019-02-04T10:55:41.203Z,75.80
2019-02-04T10:58:12.311Z,75.40
2019-02-04T11:00:42.257Z,75.20
2019-02-04T11:03:11.720Z,75.00
2019-02-04T11:05:41.849Z,75.20
2019-02-04T11:08:12.365Z,75.00
2019-02-04T11:10:42.157Z,74.90
2019-02-04T11:13:16.668Z,75.60
2019-02-04T11:15:47.716Z,74.90
2019-02-04T11:18:19.455Z,74.40
2019-02-04T11:20:57.551Z,74.20
2019-02-04T11:23:20.938Z,73.40
2019-02-04T11:25:51.113Z,72.00
2019-02-04T11:28:21.011Z,71.90
2019-02-04T11:31:10.805Z,72.20
2019-02-04T11:33:40.909Z,69.40
2019-02-04T11:36:11.477Z,69.80
2019-02-04T11:38:41.685Z,69.60
2019-02-04T11:41:12.447Z,68.90
2019-02-04T11:43:42.246Z,69.20
2019-02-04T11:46:12.504Z,70.40
2019-02-04T11:48:42.693Z,68.80
2019-02-04T11:51:13.257Z,69.50
2019-02-04T11:53:43.048Z,69.60
2019-02-04T11:56:12.949Z,68.50
2019-02-04T11:58:43.241Z,65.70
2019-02-04T12:01:13.403Z,65.90
2019-02-04T12:03:43.052Z,64.70
2019-02-04T12:06:12.743Z,63.20
2019-02-04T12:08:42.404Z,63.50
2019-02-04T12:11:22.219Z,62.10
2019-02-04T12:13:52.104Z,60.70
2019-02-04T12:16:22.108Z,57.30
2019-02-04T12:18:51.882Z,57.00
2019-02-04T12:21:22.164Z,58.00
2019-02-04T12:23:52.235Z,56.20
2019-02-04T12:26:22.650Z,56.60
2019-02-04T12:28:52.649Z,57.50
2019-02-04T12:31:23.183Z,58.60
2019-02-04T12:33:53.264Z,58.90
2019-02-04T12:36:23.314Z,59.40
2019-02-04T12:38:52.693Z,59.50
2019-02-04T12:41:22.092Z,59.70
2019-02-04T12:43:51.982Z,59.70
2019-02-04T12:46:22.460Z,59.50
2019-02-04T12:48:52.729Z,59.10
2019-02-04T12:51:32.903Z,58.80
2019-02-04T12:53:54.316Z,58.40
2019-02-04T12:56:23.975Z,59.70
2019-02-04T12:58:55.592Z,60.30
2019-02-04T13:01:26.366Z,60.80
2019-02-04T13:03:56.729Z,60.20
2019-02-04T13:06:26.833Z,59.30
2019-02-04T13:08:57.246Z,59.50
2019-02-04T13:11:28.572Z,59.50
2019-02-04T13:13:58.689Z,58.70
2019-02-04T13:16:28.404Z,57.90
2019-02-04T13:18:58.457Z,58.10
2019-02-04T13:21:28.394Z,59.80
2019-02-04T13:23:58.398Z,59.10
2019-02-04T13:26:28.975Z,58.60
2019-02-04T13:28:58.867Z,59.50
2019-02-04T13:31:29.862Z,59.00
2019-02-04T13:34:00.643Z,58.30
2019-02-04T13:36:30.108Z,58.30
2019-02-04T13:38:59.510Z,59.00
2019-02-04T13:41:29.270Z,59.70
2019-02-04T13:43:58.969Z,59.00
2019-02-04T13:46:28.802Z,57.20
2019-02-04T13:48:58.499Z,58.60
2019-02-04T13:51:30.379Z,58.30
2019-02-04T13:53:58.954Z,57.90
2019-02-04T13:56:28.401Z,58.30
2019-02-04T13:58:57.789Z,57.40
2019-02-04T14:01:27.193Z,57.60
2019-02-04T14:03:56.593Z,57.80
2019-02-04T14:06:26.020Z,56.70
2019-02-04T14:08:55.380Z,56.20
2019-02-04T14:11:24.780Z,57.10
2019-02-04T14:13:54.214Z,57.80
2019-02-04T14:16:23.900Z,57.90
2019-02-04T14:18:53.260Z,56.10
2019-02-04T14:21:22.952Z,55.40
2019-02-04T14:23:52.593Z,55.90
2019-02-04T14:26:22.567Z,56.00
2019-02-04T14:28:52.204Z,55.60
2019-02-04T14:31:21.619Z,56.30
2019-02-04T14:33:51.005Z,58.10
2019-02-04T14:36:20.396Z,57.50
2019-02-04T14:38:49.796Z,57.80
2019-02-04T14:41:19.193Z,57.70
2019-02-04T14:43:59.114Z,58.40
2019-02-04T14:47:17.929Z,57.80
2019-02-04T14:50:22.632Z,58.20
2019-02-04T14:53:27.332Z,57.80
2019-02-04T14:56:46.730Z,57.50
2019-02-04T14:59:30.305Z,57.40
2019-02-04T15:02:40.336Z,57.10
2019-02-04T15:05:39.344Z,57.70
2019-02-04T15:08:33.471Z,58.00
2019-02-04T15:11:29.701Z,57.90
2019-02-04T15:14:35.718Z,56.70
2019-02-04T15:17:18.810Z,57.30
2019-02-04T15:20:31.676Z,57.30
2019-02-04T15:23:45.185Z,57.30
2019-02-04T15:27:07.715Z,58.50
2019-02-04T15:29:46.774Z,59.20
2019-02-04T15:32:54.471Z,60.20
2019-02-04T15:36:15.842Z,60.20
2019-02-04T15:39:11.868Z,60.90
2019-02-04T15:42:32.369Z,60.70
2019-02-04T15:45:26.279Z,60.10
2019-02-04T15:48:09.415Z,60.70
2019-02-04T15:51:18.795Z,60.60
2019-02-04T15:53:48.834Z,61.40
2019-02-04T15:56:18.216Z,62.10
2019-02-04T15:58:47.650Z,62.40
2019-02-04T16:01:17.037Z,62.10
2019-02-04T16:03:46.733Z,61.40
2019-02-04T16:06:16.136Z,62.30
2019-02-04T16:08:45.534Z,62.10
2019-02-04T16:11:15.294Z,61.40
2019-02-04T16:13:44.991Z,61.80
2019-02-04T16:16:14.648Z,62.30
2019-02-04T16:18:44.332Z,62.50
2019-02-04T16:21:13.725Z,62.60
2019-02-04T16:23:43.511Z,63.00
2019-02-04T16:26:15.138Z,62.50
2019-02-04T16:28:43.981Z,63.00
2019-02-04T16:31:13.967Z,63.80
2019-02-04T16:33:43.365Z,63.40
2019-02-04T16:36:13.073Z,63.70
2019-02-04T16:38:42.783Z,63.30
2019-02-04T16:41:12.172Z,63.40
2019-02-04T16:43:41.992Z,64.00
2019-02-04T16:46:11.544Z,64.30
2019-02-04T16:48:40.945Z,64.60
2019-02-04T16:51:11.840Z,64.80
2019-02-04T16:53:41.721Z,64.90
2019-02-04T16:56:11.125Z,65.10
2019-02-04T16:58:40.551Z,65.20
2019-02-04T17:01:09.952Z,65.30
2019-02-04T17:03:39.729Z,65.60
2019-02-04T17:06:10.070Z,66.30
2019-02-04T17:08:39.487Z,65.70
2019-02-04T17:11:09.311Z,66.50
2019-02-04T17:13:39.125Z,66.30
2019-02-04T17:16:08.518Z,67.50
2019-02-04T17:18:37.895Z,67.50
2019-02-04T17:21:07.413Z,67.60
2019-02-04T17:23:38.003Z,67.50
2019-02-04T17:26:07.691Z,67.60
2019-02-04T17:28:37.385Z,69.10
2019-02-04T17:31:07.040Z,69.40
2019-02-04T17:33:36.712Z,69.90
2019-02-04T17:36:06.728Z,71.30
2019-02-04T17:38:36.160Z,71.00
2019-02-04T17:41:06.172Z,71.70
2019-02-04T17:43:35.564Z,71.60
2019-02-04T17:46:05.587Z,71.80
2019-02-04T17:48:35.272Z,72.20
2019-02-04T17:51:04.771Z,72.30
2019-02-04T17:53:34.643Z,72.60
2019-02-04T17:56:06.039Z,72.90
2019-02-04T17:58:35.861Z,73.50
2019-02-04T18:01:06.302Z,73.60
2019-02-04T18:03:36.033Z,74.50
2019-02-04T18:06:05.619Z,74.90
2019-02-04T18:08:35.288Z,74.90
2019-02-04T18:11:05.077Z,75.60
2019-02-04T18:13:34.540Z,75.80
2019-02-04T18:16:04.375Z,76.20
2019-02-04T18:18:34.374Z,76.10
2019-02-04T18:21:04.183Z,77.30
2019-02-04T18:23:45.329Z,77.40
2019-02-04T18:26:04.920Z,77.90
2019-02-04T18:28:34.412Z,78.30
2019-02-04T18:31:04.115Z,78.50
2019-02-04T18:33:33.712Z,78.80
2019-02-04T18:36:03.125Z,79.20
2019-02-04T18:38:32.504Z,79.50
2019-02-04T18:41:02.223Z,79.60
2019-02-04T18:43:31.595Z,80.40
2019-02-04T18:46:01.278Z,80.40
2019-02-04T18:48:30.960Z,80.50
2019-02-04T18:51:00.386Z,80.80
2019-02-04T18:53:29.768Z,80.30
2019-02-04T18:55:59.744Z,80.00
2019-02-04T18:58:32.977Z,80.00
2019-02-04T19:01:00.938Z,80.30
2019-02-04T19:03:30.308Z,80.40
2019-02-04T19:06:00.003Z,80.30
2019-02-04T19:08:29.652Z,79.90
2019-02-04T19:10:59.063Z,80.10
2019-02-04T19:13:35.781Z,80.90
2019-02-04T19:15:59.553Z,80.70
2019-02-04T19:18:29.216Z,81.20
2019-02-04T19:20:58.608Z,81.00
2019-02-04T19:23:27.980Z,81.40
2019-02-04T19:25:57.400Z,81.80
2019-02-04T19:28:26.803Z,82.10
2019-02-04T19:31:03.443Z,82.00
2019-02-04T19:33:32.821Z,82.10
2019-02-04T19:36:02.510Z,82.10
2019-02-04T19:38:32.170Z,82.20
2019-02-04T19:41:01.673Z,82.20
2019-02-04T19:43:31.043Z,81.90
2019-02-04T19:46:00.779Z,81.60
2019-02-04T19:48:30.463Z,82.20
2019-02-04T19:50:59.959Z,82.30
2019-02-04T19:53:29.371Z,82.20
2019-02-04T19:55:58.835Z,83.20
2019-02-04T19:58:28.260Z,83.40
2019-02-04T20:00:57.925Z,83.10
2019-02-04T20:03:27.394Z,83.20
2019-02-04T20:05:57.045Z,83.10
2019-02-04T20:08:26.760Z,83.10
2019-02-04T20:10:56.156Z,82.90
2019-02-04T20:13:25.865Z,82.80
2019-02-04T20:15:55.271Z,82.50
2019-02-04T20:18:24.672Z,82.70
2019-02-04T20:20:54.327Z,83.30
2019-02-04T20:23:23.750Z,83.20
2019-02-04T20:25:53.405Z,83.10
2019-02-04T20:28:22.819Z,83.40
2019-02-04T20:30:52.518Z,83.40
2019-02-04T20:33:21.919Z,83.70
2019-02-04T20:35:51.560Z,83.60
2019-02-04T20:38:21.228Z,83.60
2019-02-04T20:40:50.909Z,83.70
2019-02-04T20:43:20.300Z,83.70
2019-02-04T20:45:49.667Z,83.90
2019-02-04T20:48:19.063Z,84.30
2019-02-04T20:50:48.763Z,84.40
2019-02-04T20:53:18.160Z,84.20
2019-02-04T20:55:47.532Z,84.30
2019-02-04T20:58:16.938Z,84.00
2019-02-04T21:00:46.580Z,84.00
2019-02-04T21:03:16.913Z,84.40
2019-02-04T21:05:46.275Z,84.70
2019-02-04T21:08:15.795Z,85.00
2019-02-04T21:10:45.183Z,85.20
2019-02-04T21:13:14.618Z,85.60
2019-02-04T21:15:44.044Z,85.90
2019-02-04T21:18:13.461Z,85.70
2019-02-04T21:20:43.272Z,85.70
2019-02-04T21:23:13.393Z,86.10
2019-02-04T21:25:42.787Z,85.80
2019-02-04T21:28:12.198Z,85.90
2019-02-04T21:30:43.141Z,85.90
2019-02-04T21:33:12.622Z,85.60
2019-02-04T21:35:42.276Z,86.00
2019-02-04T21:38:12.051Z,86.30
2019-02-04T21:40:41.724Z,86.20
2019-02-04T21:43:11.101Z,86.00
2019-02-04T21:45:40.525Z,86.30
2019-02-04T21:48:09.903Z,86.50
2019-02-04T21:50:39.304Z,87.10
2019-02-04T21:53:08.890Z,86.70
2019-02-04T21:55:38.280Z,86.80
2019-02-04T21:58:07.696Z,85.80
2019-02-04T22:00:39.063Z,86.40
2019-02-04T22:03:08.424Z,86.20
2019-02-04T22:05:37.820Z,86.30
2019-02-04T22:08:07.665Z,86.70
2019-02-04T22:10:37.057Z,86.70
2019-02-04T22:13:06.800Z,86.40
2019-02-04T22:15:36.801Z,86.70
2019-02-04T22:18:06.981Z,86.70
2019-02-04T22:20:36.684Z,86.90
2019-02-04T22:23:06.075Z,86.90
2019-02-04T22:25:35.593Z,87.10
2019-02-04T22:28:05.804Z,87.20
2019-02-04T22:30:35.196Z,87.10
2019-02-04T22:33:04.660Z,86.90
2019-02-04T22:35:34.175Z,87.50
2019-02-04T22:38:03.954Z,87.50
2019-02-04T22:40:33.920Z,87.00
2019-02-04T22:43:03.562Z,87.40
2019-02-04T22:45:33.229Z,87.70
2019-02-04T22:48:02.932Z,87.80
2019-02-04T22:50:32.466Z,87.30
2019-02-04T22:53:02.649Z,87.70
2019-02-04T22:55:32.864Z,88.10
2019-02-04T22:58:02.508Z,88.00
2019-02-04T23:01:06.694Z,88.50
2019-02-04T23:03:36.374Z,88.40
2019-02-04T23:06:05.780Z,88.30
2019-02-04T23:08:35.514Z,88.60
2019-02-04T23:11:05.005Z,89.20
2019-02-04T23:13:35.638Z,89.20
2019-02-04T23:16:05.229Z,88.80
2019-02-04T23:18:34.970Z,89.10
2019-02-04T23:21:05.050Z,89.20
2019-02-04T23:23:34.443Z,89.20
2019-02-04T23:26:04.086Z,89.10
2019-02-04T23:28:33.498Z,89.20
2019-02-04T23:31:02.897Z,89.20
2019-02-04T23:33:34.109Z,89.30
2019-02-04T23:36:03.335Z,89.50
2019-02-04T23:38:32.890Z,90.10
2019-02-04T23:41:02.340Z,90.40
2019-02-04T23:43:31.919Z,90.40
2019-02-04T23:46:01.596Z,90.30
2019-02-04T23:48:31.083Z,90.10
2019-02-04T23:51:00.843Z,90.20
2019-02-04T23:53:30.208Z,90.20
2019-02-04T23:56:00.538Z,90.10
2019-02-04T23:58:30.188Z,90.00
